createdAt,value
2022-09-03T00:02:25.285Z,6.82
2022-09-03T00:07:53.710Z,6.44
2022-09-03T00:13:00.801Z,6.66
2022-09-03T00:18:09.975Z,6.09
2022-09-03T00:23:23.275Z,5.65
2022-09-03T00:28:53.583Z,6.61
2022-09-03T00:34:03.550Z,6.19
2022-09-03T00:39:07.607Z,6.28
2022-09-03T00:44:38.023Z,6.30
2022-09-03T00:50:22.716Z,6.45
2022-09-03T00:55:29.287Z,6.38
2022-09-03T01:00:31.652Z,6.18
2022-09-03T01:06:01.912Z,6.41
2022-09-03T01:11:35.521Z,5.80
2022-09-03T01:16:52.936Z,6.31
2022-09-03T01:22:05.711Z,6.25
2022-09-03T01:27:37.816Z,6.29
2022-09-03T01:32:44.191Z,6.18
2022-09-03T01:38:08.043Z,6.22
2022-09-03T01:43:41.027Z,6.18
2022-09-03T01:48:59.091Z,5.93
2022-09-03T01:54:51.267Z,5.52
2022-09-03T02:00:18.486Z,5.36
2022-09-03T02:05:25.981Z,5.93
2022-09-03T02:10:31.968Z,5.81
2022-09-03T02:15:36.637Z,5.76
2022-09-03T02:20:39.105Z,5.73
2022-09-03T02:25:46.144Z,5.60
2022-09-03T02:30:51.144Z,5.67
2022-09-03T02:35:54.748Z,5.61
2022-09-03T02:40:57.424Z,5.57
2022-09-03T02:46:06.214Z,5.64
2022-09-03T02:51:13.921Z,5.31
2022-09-03T02:56:17.243Z,3.38
2022-09-03T03:01:23.646Z,3.36
2022-09-03T03:06:26.801Z,5.45
2022-09-03T03:11:29.491Z,5.40
2022-09-03T03:16:31.833Z,4.88
2022-09-03T03:21:34.235Z,4.69
2022-09-03T03:26:36.443Z,5.46
2022-09-03T03:31:38.722Z,5.59
2022-09-03T03:36:41.003Z,5.42
2022-09-03T03:41:45.625Z,5.07
2022-09-03T03:46:47.861Z,5.32
2022-09-03T03:51:50.181Z,5.41
2022-09-03T03:57:03.904Z,5.81
2022-09-03T04:02:06.326Z,5.18
2022-09-03T04:07:09.261Z,5.88
2022-09-03T04:12:11.640Z,5.25
2022-09-03T04:17:15.328Z,5.88
2022-09-03T04:22:19.350Z,6.02
2022-09-03T04:27:21.579Z,5.46
2022-09-03T04:32:42.415Z,5.99
2022-09-03T04:37:44.641Z,5.95
2022-09-03T04:42:47.025Z,5.94
2022-09-03T04:48:00.125Z,6.03
2022-09-03T04:53:07.931Z,5.60
2022-09-03T04:58:10.533Z,5.96
2022-09-03T05:03:12.894Z,6.05
2022-09-03T05:08:15.368Z,3.83
2022-09-03T05:13:18.464Z,6.14
2022-09-03T05:18:21.368Z,5.95
2022-09-03T05:23:23.761Z,6.71
2022-09-03T05:28:31.383Z,5.54
2022-09-03T05:33:35.599Z,5.86
2022-09-03T05:38:38.053Z,6.92
2022-09-03T05:43:40.901Z,3.54
2022-09-03T05:48:43.473Z,6.47
2022-09-03T05:53:47.763Z,4.18
2022-09-03T05:58:55.128Z,2.99
2022-09-03T06:04:02.885Z,5.20
2022-09-03T06:09:18.097Z,3.86
2022-09-03T06:14:20.802Z,5.17
2022-09-03T06:19:23.280Z,5.25
2022-09-03T06:24:28.279Z,6.55
2022-09-03T06:29:30.883Z,5.29
2022-09-03T06:34:33.351Z,6.55
2022-09-03T06:39:35.591Z,8.04
2022-09-03T06:44:38.113Z,7.90
2022-09-03T06:49:40.362Z,8.18
2022-09-03T06:54:43.284Z,7.80
2022-09-03T06:59:45.616Z,7.70
2022-09-03T07:04:50.275Z,8.88
2022-09-03T07:09:53.150Z,8.56
2022-09-03T07:14:55.629Z,9.28
2022-09-03T07:20:00.897Z,9.49
2022-09-03T07:25:03.471Z,9.48
2022-09-03T07:30:10.024Z,9.72
2022-09-03T07:35:14.050Z,9.72
2022-09-03T07:40:20.179Z,9.73
2022-09-03T07:45:22.819Z,9.96
2022-09-03T07:50:25.300Z,10.46
2022-09-03T07:55:28.466Z,10.55
2022-09-03T08:00:33.467Z,10.70
2022-09-03T08:05:37.427Z,10.29
2022-09-03T08:10:40.650Z,10.35
2022-09-03T08:15:43.199Z,10.74
2022-09-03T08:20:45.609Z,11.09
2022-09-03T08:25:48.009Z,10.94
2022-09-03T08:30:50.487Z,10.58
2022-09-03T08:35:56.078Z,11.12
2022-09-03T08:41:16.619Z,11.90
2022-09-03T08:46:21.932Z,11.45
2022-09-03T08:51:28.221Z,11.91
2022-09-03T08:56:38.465Z,12.09
2022-09-03T09:01:56.557Z,11.35
2022-09-03T09:07:01.903Z,12.26
2022-09-03T09:12:22.441Z,12.33
2022-09-03T09:17:28.346Z,12.34
2022-09-03T09:22:35.782Z,11.99
2022-09-03T09:27:39.361Z,12.59
2022-09-03T09:32:41.664Z,11.49
2022-09-03T09:37:55.461Z,11.93
2022-09-03T09:43:20.869Z,13.05
2022-09-03T09:48:31.823Z,13.03
2022-09-03T09:53:35.354Z,12.98
2022-09-03T09:58:37.771Z,13.04
2022-09-03T10:03:49.000Z,12.58
2022-09-03T10:08:51.562Z,13.52
2022-09-03T10:13:55.142Z,13.13
2022-09-03T10:19:10.876Z,13.47
2022-09-03T10:24:40.522Z,13.58
2022-09-03T10:29:42.998Z,13.29
2022-09-03T10:35:24.288Z,13.67
2022-09-03T10:40:41.821Z,13.75
2022-09-03T10:45:44.321Z,13.81
2022-09-03T10:50:56.614Z,13.75
2022-09-03T10:56:09.114Z,12.71
2022-09-03T11:01:30.277Z,13.70
2022-09-03T11:06:43.075Z,13.67
2022-09-03T11:11:53.631Z,13.45
2022-09-03T11:17:10.771Z,12.74
2022-09-03T11:22:15.730Z,13.49
2022-09-03T11:28:12.348Z,13.86
2022-09-03T11:33:15.260Z,12.55
2022-09-03T11:38:19.138Z,13.64
2022-09-03T11:43:24.394Z,13.68
2022-09-03T11:48:38.210Z,13.55
2022-09-03T11:53:40.571Z,13.65
2022-09-03T11:58:43.755Z,13.03
2022-09-03T12:03:53.335Z,13.32
2022-09-03T12:09:03.499Z,13.67
2022-09-03T12:14:20.863Z,13.83
2022-09-03T12:19:43.370Z,13.48
2022-09-03T12:24:45.972Z,14.08
2022-09-03T12:30:03.437Z,14.01
2022-09-03T12:35:13.469Z,14.14
2022-09-03T12:40:27.505Z,12.95
2022-09-03T12:46:09.763Z,14.53
2022-09-03T12:51:48.070Z,14.05
2022-09-03T12:56:27.848Z,14.15
2022-09-03T13:01:33.926Z,14.33
2022-09-03T13:06:53.579Z,14.60
2022-09-03T13:11:59.410Z,13.91
2022-09-03T13:17:27.964Z,14.47
2022-09-03T13:22:39.472Z,14.37
2022-09-03T13:27:57.077Z,14.18
2022-09-03T13:33:32.190Z,14.15
2022-09-03T13:39:10.629Z,14.37
2022-09-03T13:44:46.283Z,13.89
2022-09-03T13:50:23.800Z,14.48
2022-09-03T13:55:49.314Z,13.54
2022-09-03T14:01:26.382Z,14.53
2022-09-03T14:06:47.362Z,11.99
2022-09-03T14:12:30.628Z,14.32
2022-09-03T14:17:47.995Z,14.12
2022-09-03T14:23:06.339Z,11.58
2022-09-03T14:28:17.786Z,13.24
2022-09-03T14:33:49.223Z,13.94
2022-09-03T14:39:24.590Z,13.89
2022-09-03T14:44:59.435Z,13.92
2022-09-03T14:50:27.939Z,13.93
2022-09-03T14:56:10.911Z,13.85
2022-09-03T15:01:38.854Z,13.73
2022-09-03T15:07:24.397Z,13.75
2022-09-03T15:18:26.407Z,12.05
2022-09-03T15:23:41.014Z,13.56
2022-09-03T15:29:17.164Z,13.50
2022-09-03T15:34:40.999Z,13.56
2022-09-03T15:40:15.235Z,11.50
2022-09-03T15:45:52.653Z,13.55
2022-09-03T15:51:30.432Z,10.93
2022-09-03T15:57:09.474Z,13.47
2022-09-03T16:02:44.932Z,11.35
2022-09-03T16:08:37.198Z,9.83
2022-09-03T16:14:32.845Z,13.26
2022-09-03T16:19:59.421Z,13.16
2022-09-03T16:25:37.545Z,13.09
2022-09-03T16:31:18.006Z,10.92
2022-09-03T16:37:02.412Z,12.91
2022-09-03T16:42:57.488Z,12.45
2022-09-03T16:48:48.857Z,10.44
2022-09-03T16:54:14.574Z,12.72
2022-09-03T16:59:52.664Z,12.62
2022-09-03T17:05:27.841Z,9.92
2022-09-03T17:10:52.536Z,10.29
2022-09-03T17:16:36.011Z,12.40
2022-09-03T17:22:06.899Z,10.98
2022-09-03T17:28:04.325Z,11.67
2022-09-03T17:39:27.613Z,12.15
2022-09-03T17:44:59.849Z,12.10
2022-09-03T17:50:11.251Z,12.00
2022-09-03T17:55:16.980Z,10.98
2022-09-03T18:00:35.333Z,11.92
2022-09-03T18:05:55.125Z,11.88
2022-09-03T18:11:11.091Z,11.79
2022-09-03T18:16:25.996Z,11.59
2022-09-03T18:21:49.875Z,10.27
2022-09-03T18:27:20.872Z,10.39
2022-09-03T18:32:41.788Z,11.43
2022-09-03T18:38:02.676Z,10.80
2022-09-03T18:43:41.817Z,10.72
2022-09-03T18:49:27.487Z,11.23
2022-09-03T18:55:07.212Z,11.08
2022-09-03T19:00:33.148Z,11.04
2022-09-03T19:06:19.215Z,11.08
2022-09-03T19:11:51.129Z,10.60
2022-09-03T19:17:26.749Z,10.44
2022-09-03T19:22:58.524Z,9.98
2022-09-03T19:28:31.578Z,10.99
2022-09-03T19:33:59.097Z,10.90
2022-09-03T19:39:39.827Z,10.87
2022-09-03T19:45:40.149Z,10.75
2022-09-03T19:51:25.754Z,10.12
2022-09-03T19:56:48.331Z,9.18
2022-09-03T20:02:10.144Z,10.57
2022-09-03T20:07:31.032Z,10.47
2022-09-03T20:12:37.672Z,10.34
2022-09-03T20:18:02.600Z,10.45
2022-09-03T20:23:13.144Z,9.62
2022-09-03T20:28:23.191Z,10.70
2022-09-03T20:33:42.066Z,10.69
2022-09-03T20:39:09.922Z,10.64
2022-09-03T20:44:20.497Z,10.60
2022-09-03T20:49:38.217Z,10.50
2022-09-03T20:55:09.946Z,10.54
2022-09-03T21:00:18.665Z,9.30
2022-09-03T21:05:47.355Z,9.83
2022-09-03T21:11:03.788Z,10.36
2022-09-03T21:16:24.889Z,10.34
2022-09-03T21:21:45.951Z,7.87
2022-09-03T21:26:58.821Z,9.46
2022-09-03T21:32:15.364Z,9.85
2022-09-03T21:37:19.036Z,10.02
2022-09-03T21:42:42.607Z,9.97
2022-09-03T21:47:50.005Z,8.86
2022-09-03T21:53:03.448Z,9.85
2022-09-03T21:58:25.854Z,9.41
2022-09-03T22:03:28.414Z,9.68
2022-09-03T22:08:49.444Z,9.25
2022-09-03T22:14:11.108Z,9.48
2022-09-03T22:19:14.776Z,8.86
2022-09-03T22:24:32.253Z,9.43
2022-09-03T22:29:51.798Z,9.25
2022-09-03T22:35:03.537Z,8.17
2022-09-03T22:40:33.126Z,8.75
2022-09-03T22:45:44.828Z,8.54
2022-09-03T22:50:57.373Z,9.06
2022-09-03T22:56:07.639Z,8.87
2022-09-03T23:01:18.033Z,8.14
2022-09-03T23:06:32.820Z,8.57
2022-09-03T23:11:42.513Z,8.78
2022-09-03T23:17:06.448Z,8.79
2022-09-03T23:22:21.056Z,8.63
2022-09-03T23:27:53.794Z,7.77
2022-09-03T23:32:58.749Z,8.44
2022-09-03T23:38:33.699Z,8.35
2022-09-03T23:44:07.094Z,8.39
2022-09-03T23:49:36.956Z,8.30
2022-09-03T23:54:52.275Z,8.23
